VIR900 EGLL-RJAA
Flight info
| Callsign | VIR900 |
|---|---|
| Flight time | N/A |
| Altitude | 31000 |
| Route | DET L6 DVR UL9 KONAN UL607 FERDI DCT REMBA UL607 SPI DCT GUBAX DCT KOMIB DCT TONSU Z650 VEMUT DCT PEPIK DCT AMRAX DCT MEGIK DCT DINRO N743 UDROS DCT CRM/N0496F330 UM11 ARLAT DCT ZERGE UN644 ROLIN N644 ODILI DCT BARAD M747 SUBUT T916 LEYLA N161 GASBI/K0924F330 N161 ARKAM/K0917F350 N161 SARIN/K0913S1070 A368 FKG W188 GOVSA DCT JNQ/K0906S1130 DCT DKO W69 HUR B339 LADIX W34 VAPGU W100 ORAVA W201 UNSEK A326 DONVO G597 AGAVO/N0495F370 Y644 MONSI/N0499F390 Y644 EGOBA Y697 LANAT Y51 SAMON Y517 ESKAS Y303 ENTAK/N0497F400 Y30 SWAMP |
| Aircraft | B744/H-SDE3FGHIM1M2RWXY/LB1 |
Departure
| Time | 2026-05-08 07:03 |
|---|---|
| Airport | London Heathrow Airport (EGLL) |
Arrival
| Time | N/A |
|---|---|
| Airport | Narita International Airport (RJAA) |
| Time | Latitude | Longitude | Altitude | Speed | Heading |
|---|---|---|---|---|---|
| 2026-05-08 06:47 | 51.47038 | -0.46357 | 97 ft | 0 kts | 235° |
| 2026-05-08 06:48 | 51.47046 | -0.46340 | 97 ft | 2 kts | 235° |
| 2026-05-08 06:48 | 51.47055 | -0.46318 | 99 ft | 2 kts | 235° |
| 2026-05-08 06:48 | 51.47065 | -0.46297 | 94 ft | 2 kts | 235° |
| 2026-05-08 06:48 | 51.47072 | -0.46274 | 96 ft | 2 kts | 258° |
| 2026-05-08 06:49 | 51.47073 | -0.46247 | 94 ft | 2 kts | 276° |
| 2026-05-08 06:49 | 51.47063 | -0.46228 | 96 ft | 2 kts | 330° |
| 2026-05-08 06:49 | 51.47055 | -0.46221 | 95 ft | 0 kts | 328° |
| 2026-05-08 06:54 | 51.47058 | -0.46224 | 95 ft | 2 kts | 324° |
| 2026-05-08 06:54 | 51.47086 | -0.46257 | 96 ft | 7 kts | 323° |
| 2026-05-08 06:54 | 51.47139 | -0.46319 | 98 ft | 10 kts | 324° |
| 2026-05-08 06:55 | 51.47191 | -0.46380 | 96 ft | 6 kts | 320° |
| 2026-05-08 06:55 | 51.47216 | -0.46412 | 100 ft | 6 kts | 319° |
| 2026-05-08 06:55 | 51.47239 | -0.46507 | 96 ft | 13 kts | 266° |
| 2026-05-08 06:55 | 51.47236 | -0.46692 | 99 ft | 18 kts | 270° |
| 2026-05-08 06:56 | 51.47230 | -0.46843 | 97 ft | 5 kts | 226° |
| 2026-05-08 06:56 | 51.47175 | -0.46865 | 97 ft | 13 kts | 182° |
| 2026-05-08 06:56 | 51.47068 | -0.46861 | 96 ft | 15 kts | 179° |
| 2026-05-08 06:56 | 51.46970 | -0.46858 | 96 ft | 13 kts | 179° |
| 2026-05-08 06:57 | 51.46880 | -0.46856 | 96 ft | 12 kts | 179° |
| 2026-05-08 06:57 | 51.46793 | -0.46854 | 96 ft | 14 kts | 179° |
| 2026-05-08 06:57 | 51.46712 | -0.46856 | 96 ft | 9 kts | 186° |
| 2026-05-08 06:57 | 51.46665 | -0.46903 | 96 ft | 9 kts | 245° |
| 2026-05-08 06:58 | 51.46657 | -0.46992 | 96 ft | 7 kts | 269° |
| 2026-05-08 06:58 | 51.46657 | -0.47047 | 98 ft | 6 kts | 270° |
| 2026-05-08 06:58 | 51.46656 | -0.47163 | 96 ft | 14 kts | 270° |
| 2026-05-08 06:58 | 51.46656 | -0.47330 | 96 ft | 14 kts | 270° |
| 2026-05-08 06:59 | 51.46655 | -0.47484 | 96 ft | 13 kts | 270° |
| 2026-05-08 06:59 | 51.46655 | -0.47625 | 96 ft | 12 kts | 270° |
| 2026-05-08 06:59 | 51.46654 | -0.47751 | 96 ft | 11 kts | 270° |
| 2026-05-08 06:59 | 51.46654 | -0.47871 | 96 ft | 11 kts | 270° |
| 2026-05-08 07:00 | 51.46653 | -0.47993 | 96 ft | 11 kts | 270° |
| 2026-05-08 07:00 | 51.46653 | -0.48119 | 96 ft | 11 kts | 270° |
| 2026-05-08 07:00 | 51.46652 | -0.48248 | 96 ft | 12 kts | 270° |
| 2026-05-08 07:00 | 51.46652 | -0.48381 | 96 ft | 12 kts | 270° |
| 2026-05-08 07:01 | 51.46651 | -0.48512 | 96 ft | 11 kts | 270° |
| 2026-05-08 07:01 | 51.46651 | -0.48591 | 96 ft | 10 kts | 270° |
| 2026-05-08 07:01 | 51.46649 | -0.48695 | 97 ft | 3 kts | 247° |
| 2026-05-08 07:01 | 51.46616 | -0.48755 | 99 ft | 12 kts | 211° |
| 2026-05-08 07:02 | 51.46555 | -0.48785 | 98 ft | 14 kts | 182° |
| 2026-05-08 07:02 | 51.46482 | -0.48716 | 97 ft | 11 kts | 114° |
| 2026-05-08 07:02 | 51.46478 | -0.48619 | 98 ft | 8 kts | 88° |
| 2026-05-08 07:02 | 51.46480 | -0.48335 | 97 ft | 55 kts | 89° |
| 2026-05-08 07:03 | 51.46484 | -0.47384 | 99 ft | 117 kts | 90° |
| 2026-05-08 07:03 | 51.46488 | -0.45778 | 97 ft | 170 kts | 90° |
| 2026-05-08 07:03 | 51.46489 | -0.43673 | 368 ft | 197 kts | 90° |
| 2026-05-08 07:03 | 51.46479 | -0.41509 | 1099 ft | 193 kts | 90° |
| 2026-05-08 07:04 | 51.46426 | -0.39280 | 1528 ft | 207 kts | 94° |
| 2026-05-08 07:04 | 51.46076 | -0.36896 | 1633 ft | 229 kts | 108° |
| 2026-05-08 07:04 | 51.45573 | -0.34451 | 2028 ft | 236 kts | 107° |
| 2026-05-08 07:04 | 51.45125 | -0.31847 | 2305 ft | 249 kts | 104° |
| 2026-05-08 07:05 | 51.44712 | -0.29087 | 2532 ft | 259 kts | 103° |
| 2026-05-08 07:05 | 51.44279 | -0.26238 | 2861 ft | 266 kts | 104° |
| 2026-05-08 07:05 | 51.43820 | -0.23343 | 3266 ft | 270 kts | 104° |
| 2026-05-08 07:05 | 51.43356 | -0.20424 | 3871 ft | 270 kts | 104° |
| 2026-05-08 07:06 | 51.42893 | -0.17491 | 4593 ft | 273 kts | 104° |
| 2026-05-08 07:06 | 51.42426 | -0.14535 | 5302 ft | 275 kts | 104° |
| 2026-05-08 07:06 | 51.41953 | -0.11548 | 6002 ft | 278 kts | 104° |
| 2026-05-08 07:06 | 51.41474 | -0.08536 | 6687 ft | 280 kts | 104° |
| 2026-05-08 07:07 | 51.40991 | -0.05499 | 7353 ft | 283 kts | 104° |
| 2026-05-08 07:07 | 51.40503 | -0.02434 | 8009 ft | 285 kts | 104° |
| 2026-05-08 07:07 | 51.40009 | 0.00656 | 8650 ft | 288 kts | 104° |
| 2026-05-08 07:07 | 51.39510 | 0.03777 | 9281 ft | 291 kts | 104° |
| 2026-05-08 07:08 | 51.39006 | 0.06924 | 9904 ft | 293 kts | 104° |
| 2026-05-08 07:08 | 51.38494 | 0.10108 | 10459 ft | 299 kts | 104° |
| 2026-05-08 07:08 | 51.37966 | 0.13393 | 10852 ft | 311 kts | 104° |
| 2026-05-08 07:08 | 51.37412 | 0.16828 | 11148 ft | 327 kts | 104° |
| 2026-05-08 07:09 | 51.36828 | 0.20442 | 11425 ft | 344 kts | 104° |
| 2026-05-08 07:09 | 51.36213 | 0.24244 | 11685 ft | 362 kts | 104° |
| 2026-05-08 07:09 | 51.35563 | 0.28252 | 11946 ft | 381 kts | 104° |
| 2026-05-08 07:09 | 51.34880 | 0.32451 | 12304 ft | 397 kts | 104° |
| 2026-05-08 07:10 | 51.34172 | 0.36788 | 12875 ft | 407 kts | 104° |
| 2026-05-08 07:10 | 51.33450 | 0.41206 | 13532 ft | 414 kts | 104° |
| 2026-05-08 07:10 | 51.32715 | 0.45690 | 14215 ft | 419 kts | 104° |
| 2026-05-08 07:10 | 51.31969 | 0.50226 | 14900 ft | 424 kts | 105° |
| 2026-05-08 07:11 | 51.31213 | 0.54817 | 15573 ft | 429 kts | 105° |
| 2026-05-08 07:11 | 51.30447 | 0.59445 | 16228 ft | 434 kts | 105° |
| 2026-05-08 07:11 | 51.29567 | 0.64083 | 16884 ft | 438 kts | 106° |
| 2026-05-08 07:11 | 51.28733 | 0.68777 | 17515 ft | 442 kts | 105° |
| 2026-05-08 07:12 | 51.27902 | 0.73529 | 18125 ft | 446 kts | 106° |
| 2026-05-08 07:12 | 51.27022 | 0.78298 | 18729 ft | 450 kts | 107° |
| 2026-05-08 07:12 | 51.26129 | 0.83034 | 19308 ft | 453 kts | 107° |
| 2026-05-08 07:12 | 51.25234 | 0.87882 | 19892 ft | 457 kts | 106° |
| 2026-05-08 07:13 | 51.24343 | 0.92768 | 20432 ft | 461 kts | 106° |
| 2026-05-08 07:13 | 51.23433 | 0.97696 | 20983 ft | 464 kts | 107° |
| 2026-05-08 07:13 | 51.22507 | 1.02646 | 21512 ft | 468 kts | 107° |
| 2026-05-08 07:13 | 51.21574 | 1.07634 | 22027 ft | 471 kts | 107° |
| 2026-05-08 07:14 | 51.20637 | 1.12667 | 22530 ft | 475 kts | 107° |
| 2026-05-08 07:14 | 51.19691 | 1.17732 | 23038 ft | 478 kts | 107° |
| 2026-05-08 07:14 | 51.18733 | 1.22823 | 23500 ft | 482 kts | 107° |
| 2026-05-08 07:14 | 51.17766 | 1.27952 | 23959 ft | 485 kts | 107° |
| 2026-05-08 07:15 | 51.16792 | 1.33116 | 24408 ft | 488 kts | 106° |
| 2026-05-08 07:15 | 51.16122 | 1.38428 | 24834 ft | 491 kts | 95° |
| 2026-05-08 07:15 | 51.15845 | 1.43865 | 25257 ft | 494 kts | 94° |
| 2026-05-08 07:15 | 51.15630 | 1.49346 | 25659 ft | 497 kts | 94° |
| 2026-05-08 07:16 | 51.15385 | 1.54847 | 26043 ft | 500 kts | 95° |
| 2026-05-08 07:16 | 51.15091 | 1.60384 | 26406 ft | 503 kts | 95° |
| 2026-05-08 07:16 | 51.14798 | 1.65945 | 26774 ft | 505 kts | 94° |
| 2026-05-08 07:16 | 51.14531 | 1.71536 | 27120 ft | 508 kts | 94° |
| 2026-05-08 07:17 | 51.14262 | 1.77167 | 27446 ft | 511 kts | 94° |
| 2026-05-08 07:17 | 51.13971 | 1.82819 | 27777 ft | 513 kts | 95° |
| 2026-05-08 07:17 | 51.13671 | 1.88498 | 28092 ft | 516 kts | 95° |
| 2026-05-08 07:17 | 51.13376 | 1.94207 | 28396 ft | 518 kts | 95° |
| 2026-05-08 07:18 | 51.13083 | 1.99943 | 28698 ft | 521 kts | 95° |
| 2026-05-08 07:18 | 51.12781 | 2.05676 | 29149 ft | 519 kts | 95° |
| 2026-05-08 07:18 | 51.12473 | 2.11390 | 29594 ft | 518 kts | 95° |
| 2026-05-08 07:18 | 51.12165 | 2.17094 | 30027 ft | 517 kts | 95° |
| 2026-05-08 07:19 | 51.11858 | 2.22789 | 30441 ft | 516 kts | 95° |
| 2026-05-08 07:19 | 51.11549 | 2.28462 | 30845 ft | 514 kts | 95° |
| 2026-05-08 07:19 | 51.11237 | 2.34089 | 30997 ft | 508 kts | 95° |
| 2026-05-08 07:19 | 51.10926 | 2.39659 | 30991 ft | 504 kts | 95° |
| 2026-05-08 07:20 | 51.10302 | 2.50732 | 30988 ft | 502 kts | 95° |
| 2026-05-08 07:20 | 51.09671 | 2.61708 | 30991 ft | 502 kts | 95° |
| 2026-05-08 07:21 | 51.08170 | 2.72586 | 31004 ft | 501 kts | 106° |
| 2026-05-08 07:21 | 51.06199 | 2.83137 | 31009 ft | 501 kts | 106° |
| 2026-05-08 07:22 | 51.04293 | 2.93795 | 31012 ft | 501 kts | 106° |
| 2026-05-08 07:22 | 51.02326 | 3.04422 | 31009 ft | 501 kts | 106° |
| 2026-05-08 07:23 | 51.00376 | 3.15057 | 31011 ft | 502 kts | 106° |
| 2026-05-08 07:23 | 50.98403 | 3.25676 | 31011 ft | 502 kts | 107° |
| 2026-05-08 07:24 | 50.96426 | 3.36290 | 31009 ft | 502 kts | 107° |
| 2026-05-08 07:24 | 50.94436 | 3.46903 | 31010 ft | 502 kts | 107° |
| 2026-05-08 07:25 | 50.92438 | 3.57496 | 31010 ft | 502 kts | 107° |
| 2026-05-08 07:26 | 50.89423 | 3.73383 | 31011 ft | 502 kts | 107° |
| 2026-05-08 07:26 | 50.87400 | 3.83968 | 31012 ft | 502 kts | 107° |
| 2026-05-08 07:27 | 50.85365 | 3.94554 | 31009 ft | 503 kts | 107° |
| 2026-05-08 07:27 | 50.83322 | 4.05126 | 31010 ft | 502 kts | 107° |
| 2026-05-08 07:28 | 50.81270 | 4.15686 | 31010 ft | 503 kts | 107° |
| 2026-05-08 07:28 | 50.79208 | 4.26243 | 31011 ft | 502 kts | 107° |
| 2026-05-08 07:29 | 50.77135 | 4.36793 | 31011 ft | 503 kts | 107° |
| 2026-05-08 07:29 | 50.75051 | 4.47339 | 31012 ft | 503 kts | 107° |
| 2026-05-08 07:30 | 50.72958 | 4.57879 | 31009 ft | 503 kts | 107° |
| 2026-05-08 07:30 | 50.70855 | 4.68405 | 31010 ft | 503 kts | 108° |
| 2026-05-08 07:31 | 50.68741 | 4.78935 | 31010 ft | 503 kts | 108° |
| 2026-05-08 07:31 | 50.66618 | 4.89451 | 31010 ft | 503 kts | 108° |
| 2026-05-08 07:32 | 50.64477 | 4.99951 | 31011 ft | 503 kts | 108° |
| 2026-05-08 07:32 | 50.62314 | 5.10445 | 31011 ft | 504 kts | 108° |
| 2026-05-08 07:33 | 50.60150 | 5.20932 | 31008 ft | 503 kts | 108° |
| 2026-05-08 07:33 | 50.57971 | 5.31406 | 31009 ft | 504 kts | 108° |
| 2026-05-08 07:34 | 50.55784 | 5.41881 | 31009 ft | 504 kts | 108° |
| 2026-05-08 07:34 | 50.53583 | 5.52359 | 31011 ft | 505 kts | 108° |
| 2026-05-08 07:35 | 50.51471 | 5.62859 | 31022 ft | 505 kts | 101° |
| 2026-05-08 07:35 | 50.50458 | 5.73698 | 31012 ft | 505 kts | 97° |
| 2026-05-08 07:36 | 50.49507 | 5.84634 | 31012 ft | 505 kts | 98° |
| 2026-05-08 07:36 | 50.48496 | 5.95563 | 31010 ft | 506 kts | 98° |
| 2026-05-08 07:37 | 50.47513 | 6.06526 | 31010 ft | 508 kts | 98° |
| 2026-05-08 07:37 | 50.46489 | 6.17483 | 31008 ft | 507 kts | 98° |
| 2026-05-08 07:38 | 50.45475 | 6.28440 | 31009 ft | 507 kts | 98° |
| 2026-05-08 07:38 | 50.44437 | 6.39399 | 31010 ft | 508 kts | 98° |
| 2026-05-08 07:39 | 50.43397 | 6.50348 | 31010 ft | 507 kts | 98° |
| 2026-05-08 07:39 | 50.42343 | 6.61287 | 31011 ft | 508 kts | 98° |
| 2026-05-08 07:40 | 50.41282 | 6.72213 | 31011 ft | 507 kts | 98° |
| 2026-05-08 07:40 | 50.40210 | 6.83132 | 31012 ft | 506 kts | 99° |
| 2026-05-08 07:41 | 50.39128 | 6.94037 | 31006 ft | 506 kts | 99° |
| 2026-05-08 07:41 | 50.38034 | 7.04961 | 31008 ft | 508 kts | 99° |
| 2026-05-08 07:42 | 50.36934 | 7.15845 | 31001 ft | 505 kts | 99° |
| 2026-05-08 07:42 | 50.35827 | 7.26687 | 30995 ft | 503 kts | 99° |
| 2026-05-08 07:43 | 50.34713 | 7.37490 | 30997 ft | 503 kts | 99° |
| 2026-05-08 07:43 | 50.33588 | 7.48300 | 30999 ft | 503 kts | 99° |
| 2026-05-08 07:44 | 50.32455 | 7.59094 | 30997 ft | 503 kts | 99° |
| 2026-05-08 07:44 | 50.31311 | 7.69882 | 30999 ft | 503 kts | 99° |
| 2026-05-08 07:45 | 50.30155 | 7.80689 | 30995 ft | 503 kts | 99° |
| 2026-05-08 07:45 | 50.28999 | 7.91487 | 31000 ft | 505 kts | 97° |
| 2026-05-08 07:46 | 50.28104 | 8.02360 | 31012 ft | 504 kts | 98° |
| 2026-05-08 07:46 | 50.27325 | 8.11379 | 31009 ft | 504 kts | 97° |
| 2026-05-08 07:47 | 50.26421 | 8.22243 | 31010 ft | 504 kts | 97° |
| 2026-05-08 07:47 | 50.25478 | 8.33088 | 31011 ft | 504 kts | 97° |
| 2026-05-08 07:48 | 50.24541 | 8.43958 | 31012 ft | 507 kts | 98° |
| 2026-05-08 07:48 | 50.23580 | 8.54853 | 31008 ft | 505 kts | 98° |
| 2026-05-08 07:49 | 50.22619 | 8.65703 | 31008 ft | 503 kts | 98° |
| 2026-05-08 07:49 | 50.21647 | 8.76526 | 31008 ft | 503 kts | 98° |
| 2026-05-08 07:50 | 50.20666 | 8.87337 | 31007 ft | 503 kts | 98° |
| 2026-05-08 07:50 | 50.19674 | 8.98155 | 31009 ft | 503 kts | 98° |
| 2026-05-08 07:51 | 50.18673 | 9.08961 | 31009 ft | 504 kts | 98° |
| 2026-05-08 07:51 | 50.17661 | 9.19773 | 31010 ft | 504 kts | 98° |
| 2026-05-08 07:52 | 50.16638 | 9.30585 | 31011 ft | 504 kts | 98° |
| 2026-05-08 07:52 | 50.15603 | 9.41418 | 31008 ft | 506 kts | 98° |
| 2026-05-08 07:53 | 50.14556 | 9.52266 | 31008 ft | 506 kts | 98° |
| 2026-05-08 07:53 | 50.13500 | 9.63096 | 31010 ft | 506 kts | 98° |
| 2026-05-08 07:54 | 50.12434 | 9.73920 | 31010 ft | 505 kts | 99° |
| 2026-05-08 07:54 | 50.11360 | 9.84722 | 31011 ft | 505 kts | 99° |
| 2026-05-08 07:55 | 50.10275 | 9.95518 | 31011 ft | 504 kts | 99° |
| 2026-05-08 07:55 | 50.09181 | 10.06316 | 31011 ft | 505 kts | 99° |
| 2026-05-08 07:56 | 50.08075 | 10.17110 | 31011 ft | 505 kts | 99° |
| 2026-05-08 07:56 | 50.06962 | 10.27902 | 31012 ft | 505 kts | 99° |
| 2026-05-08 07:57 | 50.05874 | 10.38696 | 31010 ft | 506 kts | 99° |
| 2026-05-08 07:57 | 50.04759 | 10.49497 | 31008 ft | 505 kts | 99° |
| 2026-05-08 07:58 | 50.03643 | 10.60279 | 31009 ft | 505 kts | 99° |
| 2026-05-08 07:58 | 50.02513 | 10.71064 | 31009 ft | 506 kts | 99° |
| 2026-05-08 07:59 | 50.01373 | 10.81854 | 31010 ft | 506 kts | 99° |
| 2026-05-08 07:59 | 50.00232 | 10.92557 | 31010 ft | 504 kts | 99° |
| 2026-05-08 08:00 | 49.99072 | 11.03330 | 31011 ft | 505 kts | 99° |
| 2026-05-08 08:00 | 49.97901 | 11.14113 | 31007 ft | 506 kts | 99° |
| 2026-05-08 08:01 | 49.96518 | 11.24835 | 31025 ft | 506 kts | 107° |
| 2026-05-08 08:01 | 49.94292 | 11.35204 | 31011 ft | 506 kts | 109° |
| 2026-05-08 08:02 | 49.92226 | 11.45651 | 31001 ft | 507 kts | 105° |
| 2026-05-08 08:02 | 49.90289 | 11.56151 | 31009 ft | 506 kts | 106° |
| 2026-05-08 08:03 | 49.88357 | 11.66656 | 31005 ft | 506 kts | 103° |
| 2026-05-08 08:03 | 49.87289 | 11.77439 | 31010 ft | 507 kts | 97° |
| 2026-05-08 08:04 | 49.86362 | 11.88264 | 31010 ft | 506 kts | 98° |
| 2026-05-08 08:04 | 49.85366 | 11.99083 | 31005 ft | 507 kts | 98° |
| 2026-05-08 08:05 | 49.84409 | 12.09906 | 31008 ft | 507 kts | 98° |
| 2026-05-08 08:05 | 49.83413 | 12.20721 | 31009 ft | 507 kts | 98° |
| 2026-05-08 08:06 | 49.82426 | 12.31535 | 31010 ft | 508 kts | 98° |
| 2026-05-08 08:06 | 49.81426 | 12.42353 | 31010 ft | 508 kts | 98° |
| 2026-05-08 08:07 | 49.79757 | 12.52965 | 31006 ft | 507 kts | 107° |
| 2026-05-08 08:07 | 49.77621 | 12.63334 | 31009 ft | 505 kts | 107° |
| 2026-05-08 08:08 | 49.75576 | 12.73726 | 31009 ft | 505 kts | 107° |
| 2026-05-08 08:08 | 49.73466 | 12.84077 | 31010 ft | 505 kts | 107° |
| 2026-05-08 08:09 | 49.71377 | 12.94433 | 31011 ft | 505 kts | 107° |
| 2026-05-08 08:09 | 49.69266 | 13.04765 | 31011 ft | 505 kts | 108° |
| 2026-05-08 08:10 | 49.67149 | 13.15102 | 31012 ft | 504 kts | 108° |
| 2026-05-08 08:10 | 49.65025 | 13.25411 | 31008 ft | 504 kts | 108° |
| 2026-05-08 08:11 | 49.62892 | 13.35714 | 31009 ft | 505 kts | 108° |
| 2026-05-08 08:11 | 49.60748 | 13.46016 | 31010 ft | 505 kts | 108° |
| 2026-05-08 08:12 | 49.58592 | 13.56319 | 31011 ft | 505 kts | 108° |
| 2026-05-08 08:12 | 49.56441 | 13.66554 | 31012 ft | 506 kts | 108° |
| 2026-05-08 08:13 | 49.54260 | 13.76872 | 31005 ft | 506 kts | 108° |
| 2026-05-08 08:13 | 49.52072 | 13.87173 | 31009 ft | 507 kts | 108° |
| 2026-05-08 08:14 | 49.49876 | 13.97458 | 31010 ft | 506 kts | 108° |
| 2026-05-08 08:14 | 49.47673 | 14.07725 | 31010 ft | 505 kts | 108° |
| 2026-05-08 08:15 | 49.45461 | 14.17981 | 31011 ft | 505 kts | 108° |
| 2026-05-08 08:15 | 49.43242 | 14.28220 | 31011 ft | 505 kts | 108° |
| 2026-05-08 08:16 | 49.41011 | 14.38464 | 31011 ft | 506 kts | 108° |
| 2026-05-08 08:16 | 49.38770 | 14.48702 | 31008 ft | 506 kts | 109° |
| 2026-05-08 08:17 | 49.36522 | 14.58922 | 31009 ft | 506 kts | 109° |
| 2026-05-08 08:17 | 49.34262 | 14.69142 | 31010 ft | 505 kts | 109° |
| 2026-05-08 08:18 | 49.31997 | 14.79340 | 31010 ft | 506 kts | 109° |
| 2026-05-08 08:18 | 49.29718 | 14.89548 | 31010 ft | 506 kts | 109° |
| 2026-05-08 08:19 | 49.27430 | 14.99749 | 31011 ft | 507 kts | 109° |